Time;durP1;ratioP1;P1;durP2;ratioP2;P2;SDS_P1;SDS_P2;PMS_P1;PMS_P2;Temp;Humidity;BMP_temperature;BMP_pressure;BME280_temperature;BME280_humidity;BME280_pressure;Samples;Min_cycle;Max_cycle;Signal;HPM_P1;HPM_P2
2023/05/05 00:00:53;;;;;;;19.48;12.27;;;;;;;11.94;100.00;98083.44;5094500;28;20031;-78
2023/05/05 00:03:22;;;;;;;23.35;11.43;;;;;;;11.86;100.00;98080.38;5094154;28;20019;-78
2023/05/05 00:05:48;;;;;;;18.00;11.63;;;;;;;11.92;100.00;98083.56;5094183;28;20020;-77
2023/05/05 00:08:14;;;;;;;24.05;11.60;;;;;;;11.94;100.00;98078.09;5094350;28;20030;-77
2023/05/05 00:10:41;;;;;;;19.35;12.00;;;;;;;11.91;100.00;98083.63;5094441;28;20023;-77
2023/05/05 00:13:07;;;;;;;22.40;12.55;;;;;;;11.87;100.00;98076.75;5094588;28;20032;-77
2023/05/05 00:15:33;;;;;;;21.95;12.05;;;;;;;11.85;100.00;98070.59;5085659;28;20038;-78
2023/05/05 00:17:58;;;;;;;24.50;12.95;;;;;;;11.89;100.00;98082.88;5111406;28;20032;-78
2023/05/05 00:20:24;;;;;;;18.55;11.63;;;;;;;11.84;100.00;98077.75;5094045;28;20033;-78
2023/05/05 00:22:49;;;;;;;21.40;11.77;;;;;;;11.84;100.00;98066.19;5111093;28;20027;-78
2023/05/05 00:25:15;;;;;;;20.42;12.02;;;;;;;11.82;100.00;98055.56;5110852;28;20456;-78
2023/05/05 00:27:40;;;;;;;22.90;12.48;;;;;;;11.83;100.00;98056.41;5094125;28;20031;-77
2023/05/05 00:30:06;;;;;;;23.17;13.48;;;;;;;11.81;100.00;98072.56;5110994;28;20050;-78
2023/05/05 00:32:32;;;;;;;20.35;11.57;;;;;;;11.77;100.00;98073.72;5110935;28;21556;-77
2023/05/05 00:34:58;;;;;;;17.33;10.65;;;;;;;11.69;100.00;98085.81;5093923;28;20035;-77
2023/05/05 00:37:23;;;;;;;19.30;11.40;;;;;;;11.72;100.00;98093.72;5093716;28;20050;-77
2023/05/05 00:39:49;;;;;;;22.63;12.45;;;;;;;11.78;100.00;98098.72;5093973;28;20103;-78
2023/05/05 00:42:15;;;;;;;22.70;13.15;;;;;;;11.66;100.00;98084.16;5093718;28;20076;-77
2023/05/05 00:44:41;;;;;;;22.60;12.80;;;;;;;11.74;100.00;98094.47;5093850;28;20016;-77
2023/05/05 00:47:07;;;;;;;23.38;12.50;;;;;;;11.67;100.00;98080.53;5093681;28;20031;-77
2023/05/05 00:49:33;;;;;;;24.00;12.90;;;;;;;11.71;100.00;98098.22;5110826;28;20110;-79
2023/05/05 00:51:59;;;;;;;26.52;13.35;;;;;;;11.67;100.00;98103.78;5112064;28;20102;-78
2023/05/05 00:54:25;;;;;;;23.88;13.57;;;;;;;11.63;100.00;98102.25;5093490;28;20181;-78
2023/05/05 00:56:50;;;;;;;25.70;13.80;;;;;;;11.64;100.00;98093.25;5093625;28;20022;-78
2023/05/05 00:59:16;;;;;;;22.60;13.80;;;;;;;11.63;100.00;98099.56;5094813;28;20031;-78
2023/05/05 01:01:42;;;;;;;30.13;12.93;;;;;;;11.68;100.00;98109.06;5114787;28;20027;-78
2023/05/05 01:04:07;;;;;;;24.33;13.23;;;;;;;11.60;100.00;98091.69;5114844;28;20031;-78
2023/05/05 01:07:02;;;;;;;24.52;12.52;;;;;;;11.69;100.00;98108.09;5097706;28;20115;-77
2023/05/05 01:09:54;;;;;;;23.30;12.80;;;;;;;11.69;100.00;98110.78;5110544;28;20070;-77
2023/05/05 01:12:20;;;;;;;27.33;14.10;;;;;;;11.66;100.00;98108.28;5105738;28;20043;-77
2023/05/05 01:14:57;;;;;;;30.65;16.77;;;;;;;11.59;100.00;98109.59;5114280;28;20023;-78
2023/05/05 01:17:26;;;;;;;34.83;18.10;;;;;;;11.56;100.00;98103.53;5114609;28;20410;-77
2023/05/05 01:20:01;;;;;;;38.95;18.73;;;;;;;11.62;100.00;98108.56;5123375;27;20068;-76
2023/05/05 01:22:44;;;;;;;30.20;16.92;;;;;;;11.57;100.00;98100.75;5097522;28;20597;-77
2023/05/05 01:25:21;;;;;;;29.77;15.80;;;;;;;11.60;100.00;98110.44;5094082;28;20537;-77
2023/05/05 01:27:54;;;;;;;31.52;16.75;;;;;;;11.66;100.00;98110.13;5113443;28;20027;-78
2023/05/05 01:30:58;;;;;;;31.95;15.63;;;;;;;11.64;100.00;98109.31;5097081;28;20138;-78
2023/05/05 01:33:30;;;;;;;34.38;15.07;;;;;;;11.60;100.00;98094.34;5110205;28;20028;-78
2023/05/05 01:36:02;;;;;;;25.90;15.13;;;;;;;11.57;100.00;98094.53;5106176;28;20027;-78
2023/05/05 01:38:35;;;;;;;30.75;16.27;;;;;;;11.61;100.00;98098.78;5097286;28;20035;-78
2023/05/05 01:41:07;;;;;;;31.02;15.75;;;;;;;11.66;100.00;98105.59;5097189;28;20031;-78
2023/05/05 01:43:34;;;;;;;35.65;16.00;;;;;;;11.65;100.00;98108.38;5097176;28;20035;-78
2023/05/05 01:46:01;;;;;;;27.55;16.05;;;;;;;11.68;100.00;98101.03;5113968;28;20027;-78
2023/05/05 01:48:28;;;;;;;27.23;15.82;;;;;;;11.62;100.00;98096.03;5096922;28;20034;-78
2023/05/05 01:50:54;;;;;;;29.83;16.05;;;;;;;11.67;100.00;98106.47;5097100;28;20727;-78
2023/05/05 01:53:21;;;;;;;29.25;12.52;;;;;;;11.59;100.00;98093.53;5113935;28;20084;-78
2023/05/05 01:55:48;;;;;;;22.73;12.45;;;;;;;11.58;100.00;98090.91;5113731;28;20096;-78
2023/05/05 01:58:15;;;;;;;21.33;12.25;;;;;;;11.53;100.00;98083.16;5096794;28;20027;-77
2023/05/05 02:00:40;;;;;;;25.85;11.50;;;;;;;11.54;100.00;98070.59;5113542;28;20510;-77
2023/05/05 02:03:07;;;;;;;21.55;11.65;;;;;;;11.54;100.00;98067.91;5096813;28;20024;-77
2023/05/05 02:05:33;;;;;;;25.33;13.07;;;;;;;11.58;100.00;98070.34;5096779;28;20046;-76
2023/05/05 02:07:59;;;;;;;22.38;12.52;;;;;;;11.59;100.00;98065.84;5113831;28;20406;-77
2023/05/05 02:10:26;;;;;;;19.63;11.93;;;;;;;11.48;100.00;98057.56;5113028;28;20042;-77
2023/05/05 02:12:52;;;;;;;22.13;13.00;;;;;;;11.61;100.00;98075.53;5096152;28;20427;-77
2023/05/05 02:15:20;;;;;;;23.08;13.20;;;;;;;11.63;100.00;98062.06;5096630;28;20024;-77
2023/05/05 02:17:46;;;;;;;21.20;11.80;;;;;;;11.67;100.00;98076.97;5096587;28;20107;-78
2023/05/05 02:20:13;;;;;;;22.02;12.35;;;;;;;11.54;100.00;98067.91;5113436;28;20023;-77
2023/05/05 02:22:39;;;;;;;22.70;12.23;;;;;;;11.52;100.00;98076.06;5096194;28;20097;-77
2023/05/05 02:25:05;;;;;;;20.08;11.65;;;;;;;11.60;100.00;98075.59;5096088;28;20023;-77
2023/05/05 02:27:32;;;;;;;30.77;13.32;;;;;;;11.68;100.00;98081.41;5113374;28;20027;-78
2023/05/05 02:30:03;;;;;;;27.90;16.67;;;;;;;11.72;100.00;98070.44;5112858;28;20476;-77
2023/05/05 02:32:55;;;;;;;31.88;16.40;;;;;;;11.63;100.00;98080.81;5096408;28;20543;-77
2023/05/05 02:35:23;;;;;;;29.75;15.20;;;;;;;11.59;100.00;98079.25;5085227;28;20035;-77
2023/05/05 02:38:01;;;;;;;31.17;16.50;;;;;;;11.42;100.00;98069.50;5095899;28;20039;-78
2023/05/05 02:40:29;;;;;;;25.90;14.55;;;;;;;11.31;100.00;98064.75;5096103;28;20028;-78
2023/05/05 02:43:02;;;;;;;25.52;14.98;;;;;;;11.22;100.00;98073.31;5096080;28;20388;-77
2023/05/05 02:45:28;;;;;;;27.73;14.15;;;;;;;11.33;100.00;98086.94;5095872;28;20019;-77
2023/05/05 02:47:53;;;;;;;23.88;13.88;;;;;;;11.28;100.00;98072.97;5095731;28;20559;-77
2023/05/05 02:50:19;;;;;;;25.10;13.82;;;;;;;11.29;100.00;98076.47;5112832;28;20031;-77
2023/05/05 02:52:45;;;;;;;26.40;13.30;;;;;;;11.22;100.00;98067.09;5112810;28;20026;-78
2023/05/05 02:55:10;;;;;;;23.33;12.88;;;;;;;11.25;100.00;98073.13;5095457;28;20410;-77
2023/05/05 02:57:55;;;;;;;23.27;12.52;;;;;;;11.22;100.00;98083.16;5112542;28;20027;-78
2023/05/05 03:00:30;;;;;;;26.30;13.43;;;;;;;11.08;100.00;98062.50;5112425;28;20023;-78
2023/05/05 03:03:08;;;;;;;25.50;14.15;;;;;;;11.12;100.00;98077.44;5112412;28;20115;-76
2023/05/05 03:05:42;;;;;;;26.38;13.68;;;;;;;11.14;100.00;98080.03;5095663;28;20031;-77
2023/05/05 03:08:29;;;;;;;23.38;12.90;;;;;;;11.19;100.00;98077.97;5095543;28;20480;-78
2023/05/05 03:11:05;;;;;;;62.03;24.20;;;;;;;11.12;100.00;98060.50;5112466;28;20026;-78
2023/05/05 03:13:31;;;;;;;35.75;16.98;;;;;;;11.21;100.00;98068.03;5106290;28;20053;-76
2023/05/05 03:15:57;;;;;;;22.50;13.60;;;;;;;11.19;100.00;98056.56;5112138;28;20032;-77
2023/05/05 03:18:24;;;;;;;25.52;13.00;;;;;;;11.27;100.00;98065.88;5095114;28;20550;-76
2023/05/05 03:20:50;;;;;;;28.48;13.23;;;;;;;11.19;100.00;98068.13;5112273;28;20059;-76
2023/05/05 03:23:19;;;;;;;29.25;14.75;;;;;;;11.26;100.00;98069.50;5111765;28;20533;-77
2023/05/05 03:25:46;;;;;;;27.15;15.05;;;;;;;11.29;100.00;98077.34;5111927;28;20114;-77
2023/05/05 03:28:13;;;;;;;32.80;14.60;;;;;;;11.27;100.00;98071.22;5094856;28;20050;-78
2023/05/05 03:30:39;;;;;;;28.50;14.48;;;;;;;11.30;100.00;98072.88;5111727;28;20043;-77
2023/05/05 03:33:05;;;;;;;27.83;13.82;;;;;;;11.34;100.00;98072.63;5111993;28;20027;-78
2023/05/05 03:35:30;;;;;;;25.08;13.98;;;;;;;11.40;100.00;98077.63;5094650;28;20066;-77
2023/05/05 03:37:55;;;;;;;27.52;14.75;;;;;;;11.39;100.00;98081.25;5094756;28;20081;-76
2023/05/05 03:40:22;;;;;;;33.92;15.35;;;;;;;11.42;100.00;98081.06;5111493;28;20142;-78
2023/05/05 03:42:48;;;;;;;35.65;17.25;;;;;;;11.35;100.00;98079.69;5094091;28;20107;-74
2023/05/05 03:45:13;;;;;;;35.08;19.50;;;;;;;11.35;100.00;98082.34;5112521;28;20047;-77
2023/05/05 03:47:39;;;;;;;28.05;15.93;;;;;;;11.43;100.00;98090.84;5093818;28;20031;-80
2023/05/05 03:50:06;;;;;;;29.77;14.55;;;;;;;11.47;100.00;98080.81;5111180;28;20092;-76
2023/05/05 03:52:31;;;;;;;23.55;14.25;;;;;;;11.49;100.00;98084.28;5093704;28;20023;-77
2023/05/05 03:54:58;;;;;;;28.30;15.27;;;;;;;11.47;100.00;98090.66;5093791;28;20126;-77
2023/05/05 03:57:25;;;;;;;30.55;16.95;;;;;;;11.43;100.00;98093.53;5110181;28;20027;-77
2023/05/05 03:59:50;;;;;;;35.03;17.20;;;;;;;11.38;100.00;98095.56;5110856;28;20455;-77
2023/05/05 04:02:15;;;;;;;44.85;22.15;;;;;;;11.37;100.00;98095.69;5093812;28;20027;-77
2023/05/05 04:04:41;;;;;;;34.53;17.67;;;;;;;11.39;100.00;98104.47;5110469;28;20470;-77
2023/05/05 04:07:06;;;;;;;30.10;15.23;;;;;;;11.42;100.00;98102.50;5110581;28;20019;-77
2023/05/05 04:09:32;;;;;;;32.80;17.35;;;;;;;11.49;100.00;98107.50;5093309;28;20092;-77
2023/05/05 04:11:57;;;;;;;32.17;18.00;;;;;;;11.63;100.00;98104.94;5110605;28;20032;-77
2023/05/05 04:14:23;;;;;;;31.17;16.73;;;;;;;11.65;100.00;98094.97;5110441;28;20110;-77
2023/05/05 04:16:48;;;;;;;42.30;17.65;;;;;;;11.72;100.00;98107.13;5110511;28;20034;-76
2023/05/05 04:19:14;;;;;;;32.42;16.98;;;;;;;11.77;100.00;98094.31;5093480;28;20664;-75
2023/05/05 04:21:39;;;;;;;30.70;16.33;;;;;;;11.75;100.00;98088.19;5093388;28;20039;-75
2023/05/05 04:24:05;;;;;;;33.72;18.80;;;;;;;11.74;100.00;98095.34;5093515;28;20118;-79
2023/05/05 04:26:31;;;;;;;29.50;15.90;;;;;;;11.71;100.00;98091.97;5093032;28;20024;-77
2023/05/05 04:28:56;;;;;;;36.15;18.17;;;;;;;11.69;100.00;98089.34;5103537;28;20034;-75
2023/05/05 04:31:22;;;;;;;32.17;16.38;;;;;;;11.70;100.00;98100.97;5092353;28;20471;-76
2023/05/05 04:33:47;;;;;;;34.72;17.98;;;;;;;11.78;100.00;98093.38;5110207;28;20114;-78
2023/05/05 04:36:13;;;;;;;35.35;17.58;;;;;;;11.87;100.00;98090.97;5109929;28;20035;-76
2023/05/05 04:38:38;;;;;;;34.80;17.92;;;;;;;11.83;100.00;98086.78;5109789;28;20407;-77
2023/05/05 04:41:05;;;;;;;36.25;18.83;;;;;;;11.92;100.00;98091.59;5092623;28;20035;-77
2023/05/05 04:43:30;;;;;;;48.65;25.60;;;;;;;11.96;100.00;98092.28;5109653;28;20543;-76
2023/05/05 04:45:56;;;;;;;47.50;19.95;;;;;;;12.04;100.00;98089.13;5109508;28;20107;-76
2023/05/05 04:48:22;;;;;;;39.25;19.67;;;;;;;12.05;100.00;98083.69;5091202;28;20032;-76
2023/05/05 04:50:47;;;;;;;43.50;19.80;;;;;;;12.03;100.00;98071.34;5092437;28;20035;-77
2023/05/05 04:53:13;;;;;;;41.40;23.73;;;;;;;12.01;100.00;98078.59;5092911;28;20038;-77
2023/05/05 04:55:38;;;;;;;34.72;19.80;;;;;;;11.97;100.00;98069.03;5109662;28;20023;-78
2023/05/05 04:58:04;;;;;;;35.05;20.05;;;;;;;12.08;100.00;98080.84;5111172;28;20034;-76
2023/05/05 05:00:29;;;;;;;36.17;18.23;;;;;;;12.11;100.00;98077.97;5109775;28;20062;-76
2023/05/05 05:02:55;;;;;;;28.02;15.13;;;;;;;12.08;100.00;98078.16;5092627;28;20085;-76
2023/05/05 05:05:21;;;;;;;24.98;13.93;;;;;;;12.17;100.00;98074.06;5093104;28;20026;-76
2023/05/05 05:07:47;;;;;;;32.38;17.52;;;;;;;12.01;100.00;98058.00;5109578;28;20119;-76
2023/05/05 05:10:12;;;;;;;36.15;18.25;;;;;;;12.05;100.00;98070.28;5092717;28;20038;-76
2023/05/05 05:12:38;;;;;;;39.88;20.05;;;;;;;12.13;100.00;98067.13;5092534;28;20487;-75
2023/05/05 05:15:04;;;;;;;31.35;16.98;;;;;;;12.20;100.00;98071.19;5109580;28;20028;-76
2023/05/05 05:17:29;;;;;;;28.95;16.15;;;;;;;12.12;100.00;98071.63;5109520;28;20554;-75
2023/05/05 05:19:55;;;;;;;45.63;23.13;;;;;;;12.22;100.00;98078.19;5109389;28;20494;-75
2023/05/05 05:22:21;;;;;;;34.72;18.00;;;;;;;11.89;100.00;98064.09;5092715;28;20027;-77
2023/05/05 05:24:47;;;;;;;29.45;16.80;;;;;;;11.89;100.00;98067.66;5092387;28;20376;-77
2023/05/05 05:27:12;;;;;;;26.33;15.75;;;;;;;11.98;100.00;98074.28;5092564;28;20034;-76
2023/05/05 05:29:38;;;;;;;65.85;33.92;;;;;;;12.04;100.00;98084.63;5092058;28;20142;-75
2023/05/05 05:32:03;;;;;;;26.27;15.15;;;;;;;11.77;100.00;98065.69;5109176;28;20095;-74
2023/05/05 05:34:29;;;;;;;22.50;13.32;;;;;;;11.71;100.00;98075.91;5092510;28;20100;-76
2023/05/05 05:36:54;;;;;;;34.58;18.90;;;;;;;11.82;100.00;98078.81;5109303;28;20053;-77
2023/05/05 05:39:20;;;;;;;25.92;14.38;;;;;;;12.05;100.00;98083.69;5109563;28;20069;-75
2023/05/05 05:41:46;;;;;;;29.25;15.30;;;;;;;12.22;100.00;98088.91;5109095;28;20447;-75
2023/05/05 05:44:11;;;;;;;25.92;14.90;;;;;;;12.33;100.00;98069.50;5092182;28;20032;-75
2023/05/05 05:46:37;;;;;;;25.13;14.10;;;;;;;12.36;100.00;98067.50;5095261;28;20079;-75
2023/05/05 05:49:02;;;;;;;31.25;14.18;;;;;;;12.18;100.00;98063.22;5095773;28;20473;-75
2023/05/05 05:51:29;;;;;;;52.45;30.73;;;;;;;12.32;100.00;98057.91;5113199;28;20123;-76
2023/05/05 05:53:55;;;;;;;29.58;13.85;;;;;;;12.46;100.00;98054.34;5095924;28;20031;-76
2023/05/05 05:56:20;;;;;;;28.13;16.42;;;;;;;12.56;100.00;98052.84;5113140;28;20406;-75
2023/05/05 05:58:47;;;;;;;21.80;13.82;;;;;;;12.70;100.00;98042.13;5112940;28;20107;-75
2023/05/05 06:01:13;;;;;;;28.13;18.23;;;;;;;12.68;100.00;98037.78;5095666;28;20038;-75
2023/05/05 06:03:38;;;;;;;28.63;14.50;;;;;;;12.60;100.00;98040.09;5112867;28;20409;-76
2023/05/05 06:06:04;;;;;;;22.88;12.07;;;;;;;12.68;100.00;98035.97;5095486;28;20041;-75
2023/05/05 06:08:30;;;;;;;23.52;13.13;;;;;;;12.67;100.00;98031.59;5095795;28;20034;-76
2023/05/05 06:10:55;;;;;;;21.55;12.10;;;;;;;12.80;100.00;98026.28;5095561;28;20106;-76
2023/05/05 06:13:21;;;;;;;20.45;11.73;;;;;;;12.98;100.00;98025.13;5095636;28;20026;-76
2023/05/05 06:15:46;;;;;;;19.58;11.60;;;;;;;13.12;100.00;98018.91;5095377;28;20016;-76
2023/05/05 06:18:12;;;;;;;56.42;32.20;;;;;;;13.37;100.00;98006.47;5112340;28;20058;-76
2023/05/05 06:20:37;;;;;;;15.38;8.52;;;;;;;13.46;100.00;97989.72;5095424;28;20027;-76
2023/05/05 06:23:03;;;;;;;12.45;8.18;;;;;;;13.47;100.00;97967.25;5113485;28;20487;-77
2023/05/05 06:25:28;;;;;;;13.60;7.93;;;;;;;13.50;100.00;97963.50;5095350;28;20019;-76
2023/05/05 06:27:54;;;;;;;17.13;10.57;;;;;;;13.78;100.00;97963.34;5095409;28;20024;-77
2023/05/05 06:30:20;;;;;;;13.00;7.90;;;;;;;13.97;100.00;97958.44;5094856;28;20043;-76
2023/05/05 06:32:45;;;;;;;10.98;7.13;;;;;;;13.92;100.00;97952.53;5095213;28;20057;-75
2023/05/05 06:35:11;;;;;;;28.05;17.58;;;;;;;13.93;100.00;97956.09;5112028;28;20035;-74
2023/05/05 06:37:37;;;;;;;19.60;8.25;;;;;;;14.21;100.00;97958.59;5074921;28;20113;-75
2023/05/05 06:40:03;;;;;;;20.98;12.50;;;;;;;14.43;100.00;97949.88;5108745;28;20384;-75
2023/05/05 06:42:29;;;;;;;11.15;7.75;;;;;;;14.44;100.00;97939.00;5094981;28;20034;-75
2023/05/05 06:44:55;;;;;;;10.15;7.03;;;;;;;14.39;100.00;97926.84;5094969;28;20024;-76
2023/05/05 06:47:21;;;;;;;15.75;7.43;;;;;;;14.74;100.00;97933.25;5111616;28;20449;-75
2023/05/05 06:49:46;;;;;;;13.18;6.40;;;;;;;14.72;100.00;97927.13;5094620;28;20452;-74
2023/05/05 06:52:12;;;;;;;10.00;6.10;;;;;;;15.13;100.00;97924.91;5094466;28;20114;-75
2023/05/05 06:54:37;;;;;;;10.50;6.50;;;;;;;15.05;100.00;97916.56;5094649;28;20023;-75
2023/05/05 06:57:03;;;;;;;11.05;7.30;;;;;;;15.51;100.00;97910.44;5111520;28;20089;-76
2023/05/05 06:59:28;;;;;;;9.95;6.47;;;;;;;15.84;100.00;97907.00;5111975;28;20114;-76
2023/05/05 07:01:54;;;;;;;17.70;7.03;;;;;;;15.82;100.00;97906.25;5094575;28;20398;-76
2023/05/05 07:04:20;;;;;;;10.93;6.60;;;;;;;15.86;100.00;97907.75;5111513;28;20027;-76
2023/05/05 07:06:45;;;;;;;8.57;5.93;;;;;;;16.03;100.00;97893.78;5094663;28;20019;-77
2023/05/05 07:09:11;;;;;;;11.07;5.82;;;;;;;16.04;100.00;97880.19;5094301;28;20076;-75
2023/05/05 07:11:37;;;;;;;8.02;5.30;;;;;;;16.31;100.00;97871.75;5111593;28;20039;-75
2023/05/05 07:14:02;;;;;;;8.50;5.47;;;;;;;16.69;100.00;97874.09;5111697;28;20152;-75
2023/05/05 07:16:28;;;;;;;9.38;4.93;;;;;;;17.04;100.00;97871.22;5094070;28;20032;-75
2023/05/05 07:18:53;;;;;;;12.07;5.35;;;;;;;17.49;100.00;97867.34;5094453;28;20031;-76
2023/05/05 07:21:19;;;;;;;7.15;4.53;;;;;;;16.99;100.00;97854.50;5111137;28;20039;-76
2023/05/05 07:23:46;;;;;;;9.93;5.55;;;;;;;17.13;100.00;97849.69;5094365;28;20034;-75
2023/05/05 07:26:12;;;;;;;7.15;4.40;;;;;;;17.21;100.00;97851.72;5112381;28;20023;-75
2023/05/05 07:28:38;;;;;;;9.50;5.97;;;;;;;17.44;100.00;97858.78;5112523;28;20103;-76
2023/05/05 07:31:04;;;;;;;10.50;4.78;;;;;;;17.65;100.00;97840.75;5093808;28;20098;-76
2023/05/05 07:33:30;;;;;;;9.63;6.47;;;;;;;17.57;100.00;97845.06;5111003;28;20165;-76
2023/05/05 07:35:55;;;;;;;10.40;5.45;;;;;;;17.88;100.00;97847.72;5111163;28;20027;-76
2023/05/05 07:38:21;;;;;;;9.80;5.13;;;;;;;17.37;100.00;97856.72;5110847;28;20481;-76
2023/05/05 07:40:46;;;;;;;10.93;6.70;;;;;;;17.15;100.00;97857.66;5110851;28;20023;-75
2023/05/05 07:43:12;;;;;;;14.43;5.95;;;;;;;17.46;100.00;97867.63;5093951;28;20474;-75
2023/05/05 07:45:37;;;;;;;16.88;7.05;;;;;;;17.62;100.00;97865.38;5110650;28;20015;-76
2023/05/05 07:48:03;;;;;;;20.50;7.15;;;;;;;17.82;100.00;97850.97;5110767;28;20241;-76
2023/05/05 07:50:28;;;;;;;9.45;5.53;;;;;;;17.70;100.00;97848.44;5110440;28;20224;-76
2023/05/05 07:52:54;;;;;;;8.18;5.47;;;;;;;17.59;100.00;97865.63;5111674;28;20370;-76
2023/05/05 07:55:19;;;;;;;11.68;6.40;;;;;;;17.61;100.00;97852.81;5110165;28;20475;-76
2023/05/05 07:57:45;;;;;;;10.63;5.63;;;;;;;17.95;100.00;97855.31;5110357;28;20106;-76
2023/05/05 08:00:12;;;;;;;15.75;5.57;;;;;;;18.47;100.00;97849.75;5093175;28;20047;-76
2023/05/05 08:02:37;;;;;;;8.88;4.53;;;;;;;18.89;100.00;97845.91;5093180;28;20692;-75
2023/05/05 08:05:03;;;;;;;8.63;5.00;;;;;;;18.82;100.00;97850.19;5093231;28;20165;-75
2023/05/05 08:07:29;;;;;;;15.35;5.20;;;;;;;18.93;100.00;97857.34;5093044;28;20035;-76
2023/05/05 08:09:54;;;;;;;52.10;30.25;;;;;;;19.18;100.00;97856.81;5109809;28;20031;-76
2023/05/05 08:12:20;;;;;;;14.35;5.90;;;;;;;19.46;100.00;97855.16;5109964;28;20035;-76
2023/05/05 08:14:45;;;;;;;9.63;4.50;;;;;;;19.79;100.00;97846.56;5093081;28;20022;-76
2023/05/05 08:17:11;;;;;;;10.73;3.97;;;;;;;20.74;93.55;97839.13;5111545;28;20024;-76
2023/05/05 08:19:36;;;;;;;7.95;4.90;;;;;;;20.77;90.37;97824.38;5092677;28;20024;-74
2023/05/05 08:22:02;;;;;;;6.88;3.97;;;;;;;19.38;98.73;97841.44;5092958;28;20523;-76
2023/05/05 08:24:27;;;;;;;5.72;4.22;;;;;;;19.34;100.00;97842.72;5093178;28;20027;-76
2023/05/05 08:26:54;;;;;;;12.15;4.78;;;;;;;19.04;100.00;97857.22;5109841;28;20024;-75
2023/05/05 08:29:22;;;;;;;8.50;4.38;;;;;;;18.03;100.00;97855.50;5092572;28;20030;-75
2023/05/05 08:31:47;;;;;;;7.90;5.38;;;;;;;18.26;100.00;97866.06;5093021;28;20054;-75
2023/05/05 08:34:13;;;;;;;9.05;4.85;;;;;;;19.34;100.00;97872.56;5109834;28;20074;-75
2023/05/05 08:36:38;;;;;;;8.50;5.20;;;;;;;19.04;100.00;97848.25;5092491;28;20040;-77
2023/05/05 08:39:03;;;;;;;10.10;5.28;;;;;;;18.39;100.00;97874.78;5109981;28;20067;-76
2023/05/05 08:41:29;;;;;;;13.70;5.72;;;;;;;20.25;100.00;97869.34;5092719;28;20030;-77
2023/05/05 08:43:55;;;;;;;9.27;4.60;;;;;;;22.40;89.27;97863.91;5109692;28;20031;-75
2023/05/05 08:46:20;;;;;;;8.77;5.03;;;;;;;23.39;72.83;97824.09;5109612;28;20111;-75
2023/05/05 08:48:47;;;;;;;8.45;4.20;;;;;;;23.90;70.03;97829.31;5109443;28;20023;-75
2023/05/05 08:51:16;;;;;;;8.85;4.10;;;;;;;22.41;70.98;97822.88;5109560;28;20027;-76
2023/05/05 08:53:51;;;;;;;6.93;3.85;;;;;;;21.49;78.12;97830.66;5092190;28;20023;-77
2023/05/05 08:56:18;;;;;;;7.30;4.32;;;;;;;21.29;82.93;97833.66;5092418;28;20023;-76
2023/05/05 08:58:45;;;;;;;6.63;3.92;;;;;;;21.36;80.25;97835.63;5109215;28;20023;-76
2023/05/05 09:01:12;;;;;;;6.85;3.90;;;;;;;21.54;77.72;97831.03;5109572;28;20016;-76
2023/05/05 09:03:37;;;;;;;7.82;5.07;;;;;;;21.36;79.61;97835.63;5109183;28;20414;-75
2023/05/05 09:06:03;;;;;;;7.03;4.07;;;;;;;21.09;80.05;97822.09;5109696;28;20016;-75
2023/05/05 09:08:30;;;;;;;9.93;4.70;;;;;;;20.85;82.55;97829.94;5110670;28;20483;-75
2023/05/05 09:10:55;;;;;;;6.30;3.85;;;;;;;21.17;79.58;97829.47;5109117;28;20038;-76
2023/05/05 09:13:21;;;;;;;7.00;4.20;;;;;;;21.34;77.96;97826.78;5109362;28;20503;-74
2023/05/05 09:15:46;;;;;;;7.85;4.70;;;;;;;21.06;80.34;97817.78;5109158;28;20031;-76
2023/05/05 09:18:12;;;;;;;5.65;4.03;;;;;;;20.80;79.14;97819.50;5109426;28;20501;-77
2023/05/05 09:20:38;;;;;;;6.00;4.05;;;;;;;19.68;87.45;97822.31;5110708;28;20023;-76
2023/05/05 09:23:07;;;;;;;10.07;3.85;;;;;;;19.76;90.66;97837.84;5096307;28;20031;-78
2023/05/05 09:25:33;;;;;;;7.65;3.50;;;;;;;19.74;88.88;97824.44;5114346;28;20034;-76
2023/05/05 09:28:07;;;;;;;5.85;3.60;;;;;;;19.70;86.49;97820.28;5112761;28;20031;-75
2023/05/05 09:30:33;;;;;;;6.18;3.40;;;;;;;19.58;88.00;97821.44;5113029;28;20055;-76
2023/05/05 09:33:01;;;;;;;7.93;3.03;;;;;;;19.56;84.92;97817.19;5113015;28;20545;-76
2023/05/05 09:35:26;;;;;;;7.88;3.35;;;;;;;19.38;89.04;97836.00;5112902;28;20042;-77
2023/05/05 09:37:51;;;;;;;6.20;3.00;;;;;;;18.47;91.48;97811.81;5095821;28;20031;-77
2023/05/05 09:40:18;;;;;;;7.28;3.33;;;;;;;18.00;98.02;97837.69;5095837;28;20020;-76
2023/05/05 09:42:44;;;;;;;5.32;3.30;;;;;;;17.27;100.00;97833.16;5095724;28;20487;-76
2023/05/05 09:45:18;;;;;;;7.00;3.75;;;;;;;17.69;100.00;97857.56;5095842;28;20024;-77
2023/05/05 09:47:45;;;;;;;5.90;3.85;;;;;;;18.22;100.00;97850.19;5112444;28;20528;-77
2023/05/05 09:50:14;;;;;;;8.23;3.60;;;;;;;18.33;100.00;97855.53;5095761;28;20409;-78
2023/05/05 09:52:41;;;;;;;8.20;3.88;;;;;;;18.23;100.00;97852.78;5096020;28;20041;-78
2023/05/05 09:55:16;;;;;;;5.53;3.92;;;;;;;18.23;100.00;97843.78;5112855;28;20045;-78
2023/05/05 09:57:42;;;;;;;7.70;3.35;;;;;;;17.62;100.00;97830.19;5112630;28;20027;-77
2023/05/05 10:00:09;;;;;;;15.40;7.78;;;;;;;17.77;100.00;97834.28;5095670;28;20027;-78
2023/05/05 10:02:38;;;;;;;26.90;11.48;;;;;;;17.69;100.00;97831.34;5095796;28;20104;-77
2023/05/05 10:05:08;;;;;;;8.20;3.85;;;;;;;17.49;100.00;97850.25;5095406;28;20410;-77
2023/05/05 10:07:34;;;;;;;7.72;4.90;;;;;;;17.82;100.00;97850.09;5112431;28;20458;-77
2023/05/05 10:10:00;;;;;;;7.80;3.53;;;;;;;17.81;100.00;97848.41;5093896;28;20112;-77
2023/05/05 10:12:26;;;;;;;6.55;3.83;;;;;;;17.40;100.00;97843.78;5095528;28;20024;-78
2023/05/05 10:14:52;;;;;;;7.63;3.45;;;;;;;17.22;100.00;97838.09;5094972;28;20061;-77
2023/05/05 10:17:21;;;;;;;4.80;3.25;;;;;;;17.05;100.00;97835.94;5111952;28;20072;-77
2023/05/05 10:19:48;;;;;;;6.95;3.80;;;;;;;17.05;100.00;97843.16;5112394;28;20050;-77
2023/05/05 10:22:14;;;;;;;8.90;3.90;;;;;;;16.99;100.00;97838.28;5094942;28;20023;-76
2023/05/05 10:24:50;;;;;;;7.95;4.47;;;;;;;17.01;100.00;97850.66;5112358;28;20092;-77
2023/05/05 10:27:18;;;;;;;11.70;5.13;;;;;;;16.93;100.00;97852.31;5112092;28;20024;-78
2023/05/05 10:29:51;;;;;;;10.43;5.10;;;;;;;17.00;100.00;97848.97;5094813;28;20039;-78
2023/05/05 10:32:54;;;;;;;12.93;4.53;;;;;;;17.03;100.00;97848.72;5094118;28;20364;-78
2023/05/05 10:35:21;;;;;;;12.88;4.10;;;;;;;17.00;100.00;97837.31;5078814;28;20040;-78
2023/05/05 10:37:47;;;;;;;17.30;7.05;;;;;;;17.00;100.00;97837.31;5094825;28;20023;-77
2023/05/05 10:40:14;;;;;;;6.57;4.20;;;;;;;17.08;100.00;97851.03;5094833;28;20065;-79
2023/05/05 10:42:40;;;;;;;6.97;3.53;;;;;;;16.93;100.00;97839.66;5095149;28;20379;-78
2023/05/05 10:45:06;;;;;;;5.75;2.70;;;;;;;17.02;100.00;97835.31;5111587;28;20055;-78
2023/05/05 10:47:32;;;;;;;6.93;2.92;;;;;;;17.02;100.00;97838.03;5095046;28;20027;-78
2023/05/05 10:50:07;;;;;;;12.52;3.78;;;;;;;17.12;100.00;97844.38;5111889;28;20023;-78
2023/05/05 10:52:57;;;;;;;10.23;3.70;;;;;;;17.18;100.00;97842.03;5113180;28;20031;-79
2023/05/05 10:55:44;;;;;;;5.40;2.85;;;;;;;16.97;100.00;97841.13;5104941;28;20107;-77
2023/05/05 10:58:36;;;;;;;4.18;2.75;;;;;;;17.10;100.00;97840.97;5112837;28;20038;-78
2023/05/05 11:01:02;;;;;;;7.97;3.05;;;;;;;17.31;100.00;97836.47;5111437;28;20483;-78
2023/05/05 11:03:28;;;;;;;7.05;2.50;;;;;;;17.48;100.00;97827.75;5094634;28;20032;-78
2023/05/05 11:06:03;;;;;;;7.20;2.55;;;;;;;17.65;96.03;97823.66;5094393;28;20027;-78
2023/05/05 11:08:38;;;;;;;39.08;23.65;;;;;;;17.90;93.63;97811.56;5111498;28;20475;-79
2023/05/05 11:11:05;;;;;;;4.25;2.58;;;;;;;18.19;91.04;97810.72;5111713;28;20082;-79
2023/05/05 11:13:31;;;;;;;3.05;2.17;;;;;;;18.41;89.93;97801.53;5094666;28;20023;-79
2023/05/05 11:15:58;;;;;;;5.38;2.83;;;;;;;18.81;88.91;97813.22;5094778;28;20024;-80
2023/05/05 11:18:29;;;;;;;3.67;2.60;;;;;;;18.91;89.91;97795.13;5094868;28;20034;-79